createdAt,value
2018-11-23T00:00:38.551Z,0.25
2018-11-23T00:03:27.336Z,0.26
2018-11-23T00:06:16.152Z,0.20
2018-11-23T00:09:06.147Z,0.12
2018-11-23T00:11:54.910Z,0.14
2018-11-23T00:14:43.710Z,-0.74
2018-11-23T00:17:32.505Z,0.04
2018-11-23T00:20:22.709Z,-0.10
2018-11-23T00:23:11.493Z,-1.15
2018-11-23T00:26:00.308Z,-1.97
2018-11-23T00:28:49.101Z,-0.05
2018-11-23T00:31:37.943Z,-0.10
2018-11-23T00:34:27.105Z,-0.11
2018-11-23T00:37:15.894Z,-0.17
2018-11-23T00:40:05.281Z,-2.21
2018-11-23T00:43:13.082Z,-0.25
2018-11-23T00:46:01.857Z,-0.20
2018-11-23T00:48:50.651Z,-0.29
2018-11-23T00:51:39.481Z,-0.36
2018-11-23T00:54:28.274Z,-0.43
2018-11-23T00:57:17.073Z,-0.45
2018-11-23T01:00:09.221Z,-1.54
2018-11-23T01:02:58.829Z,-0.61
2018-11-23T01:05:47.612Z,-0.57
2018-11-23T01:08:36.391Z,-1.44
2018-11-23T01:11:25.190Z,-0.57
2018-11-23T01:14:13.975Z,-0.55
2018-11-23T01:17:03.092Z,-0.46
2018-11-23T01:19:51.887Z,-0.46
2018-11-23T01:22:41.063Z,-0.54
2018-11-23T01:25:29.893Z,-0.53
2018-11-23T01:28:19.131Z,-2.62
2018-11-23T01:31:08.276Z,-0.65
2018-11-23T01:33:57.421Z,-0.72
2018-11-23T01:36:46.218Z,-0.71
2018-11-23T01:39:35.158Z,-0.68
2018-11-23T01:42:23.946Z,-0.61
2018-11-23T01:45:13.476Z,-0.59
2018-11-23T01:48:02.596Z,-0.57
2018-11-23T01:50:51.430Z,-0.55
2018-11-23T01:53:40.235Z,-0.49
2018-11-23T01:56:29.132Z,-0.39
2018-11-23T01:59:17.912Z,-0.29
2018-11-23T02:02:06.928Z,-0.21
2018-11-23T02:04:55.751Z,-0.12
2018-11-23T02:07:44.548Z,-1.95
2018-11-23T02:10:33.634Z,0.01
2018-11-23T02:13:22.780Z,-1.71
2018-11-23T02:16:11.612Z,0.08
2018-11-23T02:19:00.389Z,-1.82
2018-11-23T02:21:49.220Z,0.11
2018-11-23T02:24:38.364Z,-0.14
2018-11-23T02:27:27.201Z,0.10
2018-11-23T02:30:35.677Z,0.13
2018-11-23T02:33:24.908Z,0.08
2018-11-23T02:36:13.716Z,0.01
2018-11-23T02:39:02.522Z,-0.11
2018-11-23T02:41:51.318Z,-1.56
2018-11-23T02:44:40.476Z,-0.20
2018-11-23T02:47:29.259Z,-1.77
2018-11-23T02:50:18.073Z,-0.20
2018-11-23T02:53:06.904Z,-0.32
2018-11-23T02:55:55.686Z,-0.31
2018-11-23T02:58:44.536Z,-0.29
2018-11-23T03:01:33.336Z,-0.26
2018-11-23T03:04:22.142Z,-0.42
2018-11-23T03:07:11.274Z,-2.67
2018-11-23T03:10:00.069Z,-0.69
2018-11-23T03:12:49.694Z,-2.67
2018-11-23T03:15:38.475Z,-0.62
2018-11-23T03:18:27.598Z,-1.19
2018-11-23T03:21:16.391Z,-0.58
2018-11-23T03:24:05.202Z,-0.60
2018-11-23T03:26:53.990Z,-2.35
2018-11-23T03:29:42.771Z,-0.52
2018-11-23T03:32:31.883Z,-2.23
2018-11-23T03:35:21.623Z,-0.76
2018-11-23T03:38:10.465Z,-0.67
2018-11-23T03:40:59.277Z,-1.45
2018-11-23T03:43:48.065Z,-1.31
2018-11-23T03:46:37.161Z,-0.67
2018-11-23T03:49:25.939Z,-2.67
2018-11-23T03:52:14.774Z,-0.68
2018-11-23T03:55:03.570Z,-0.67
2018-11-23T03:57:52.471Z,-0.68
2018-11-23T04:00:41.254Z,-0.63
2018-11-23T04:03:49.022Z,-2.37
2018-11-23T04:06:37.808Z,-0.93
2018-11-23T04:09:26.606Z,-2.79
2018-11-23T04:12:15.542Z,-0.71
2018-11-23T04:15:04.340Z,-0.76
2018-11-23T04:17:53.121Z,-0.84
2018-11-23T04:20:46.911Z,-1.00
2018-11-23T04:23:35.994Z,-1.12
2018-11-23T04:26:24.981Z,-1.79
2018-11-23T04:29:13.597Z,-1.20
2018-11-23T04:32:02.403Z,-1.20
2018-11-23T04:34:51.189Z,-1.20
2018-11-23T04:37:39.988Z,-1.12
2018-11-23T04:40:28.769Z,-1.18
2018-11-23T04:43:17.582Z,-2.90
2018-11-23T04:46:06.613Z,-1.12
2018-11-23T04:48:55.399Z,-1.13
2018-11-23T04:51:44.216Z,-3.11
2018-11-23T04:54:33.006Z,-1.20
2018-11-23T04:57:22.103Z,-1.16
2018-11-23T05:00:13.060Z,-1.51
2018-11-23T05:03:02.187Z,-1.18
2018-11-23T05:05:50.982Z,-1.21
2018-11-23T05:08:39.787Z,-1.26
2018-11-23T05:11:28.915Z,-1.30
2018-11-23T05:14:17.718Z,-1.23
2018-11-23T05:17:06.892Z,-1.25
2018-11-23T05:19:54.694Z,-1.26
2018-11-23T05:22:43.841Z,-1.23
2018-11-23T05:25:33.056Z,-1.12
2018-11-23T05:28:21.835Z,-1.21
2018-11-23T05:31:10.685Z,-1.20
2018-11-23T05:33:59.484Z,-1.17
2018-11-23T05:36:48.540Z,-1.03
2018-11-23T05:39:37.440Z,-1.30
2018-11-23T05:42:26.461Z,-2.15
2018-11-23T05:45:16.952Z,-1.07
2018-11-23T05:48:26.948Z,-1.00
2018-11-23T05:51:13.960Z,-0.93
2018-11-23T05:54:02.988Z,-2.00
2018-11-23T05:56:51.936Z,-1.39
2018-11-23T05:59:40.978Z,-0.83
2018-11-23T06:02:29.913Z,-0.82
2018-11-23T06:05:18.929Z,-0.77
2018-11-23T06:08:07.962Z,-0.78
2018-11-23T06:10:57.393Z,-0.77
2018-11-23T06:13:46.825Z,-0.88
2018-11-23T06:16:35.965Z,-0.90
2018-11-23T06:19:24.748Z,-0.83
2018-11-23T06:22:13.548Z,-0.84
2018-11-23T06:25:02.349Z,-0.82
2018-11-23T06:27:51.141Z,-0.75
2018-11-23T06:30:39.933Z,-0.70
2018-11-23T06:33:49.076Z,-0.69
2018-11-23T06:36:37.866Z,-1.01
2018-11-23T06:39:27.091Z,-0.85
2018-11-23T06:42:16.167Z,-0.82
2018-11-23T06:45:05.002Z,-2.12
2018-11-23T06:47:53.775Z,-0.84
2018-11-23T06:50:42.598Z,-0.77
2018-11-23T06:53:31.438Z,-0.84
2018-11-23T06:56:20.264Z,-0.93
2018-11-23T06:59:09.143Z,-1.01
2018-11-23T07:01:58.009Z,-1.03
2018-11-23T07:04:46.805Z,-0.99
2018-11-23T07:07:35.971Z,-0.98
2018-11-23T07:10:24.758Z,-2.21
2018-11-23T07:13:13.561Z,-1.10
2018-11-23T07:16:02.378Z,-1.06
2018-11-23T07:18:51.240Z,-1.03
2018-11-23T07:21:40.036Z,-1.13
2018-11-23T07:24:28.894Z,-1.21
2018-11-23T07:27:17.713Z,-1.17
2018-11-23T07:30:27.048Z,-1.10
2018-11-23T07:33:15.851Z,-1.04
2018-11-23T07:36:04.721Z,-1.13
2018-11-23T07:38:53.503Z,-1.11
2018-11-23T07:42:25.104Z,-1.18
2018-11-23T07:45:14.211Z,-1.37
2018-11-23T07:48:02.994Z,-1.37
2018-11-23T07:50:51.786Z,-1.25
2018-11-23T07:53:40.598Z,-1.18
2018-11-23T07:56:48.363Z,-1.15
2018-11-23T07:59:37.861Z,-1.45
2018-11-23T08:02:26.680Z,-1.12
2018-11-23T08:05:16.500Z,-1.10
2018-11-23T08:08:05.858Z,-1.02
2018-11-23T08:10:54.040Z,-1.04
2018-11-23T08:13:42.850Z,-1.06
2018-11-23T08:16:31.616Z,-1.11
2018-11-23T08:19:20.421Z,-0.90
2018-11-23T08:22:09.214Z,-0.91
2018-11-23T08:24:58.028Z,-0.98
2018-11-23T08:27:48.088Z,-1.01
2018-11-23T08:30:36.876Z,-2.00
2018-11-23T08:33:25.675Z,-0.86
2018-11-23T08:39:10.925Z,-0.78
2018-11-23T08:41:59.703Z,-0.80
2018-11-23T08:44:48.561Z,-0.99
2018-11-23T08:47:37.578Z,-0.82
2018-11-23T08:50:27.789Z,-0.77
2018-11-23T08:53:16.579Z,-2.56
2018-11-23T08:56:05.816Z,-0.80
2018-11-23T08:58:54.588Z,-0.76
2018-11-23T09:01:43.383Z,-1.84
2018-11-23T09:04:32.175Z,-0.78
2018-11-23T09:07:21.003Z,-0.84
2018-11-23T09:10:12.445Z,-0.83
2018-11-23T09:13:02.828Z,-0.79
2018-11-23T09:15:51.644Z,-0.60
2018-11-23T09:18:40.536Z,-0.53
2018-11-23T09:21:29.632Z,-0.33
2018-11-23T09:24:18.423Z,-0.35
2018-11-23T09:27:07.213Z,-0.23
2018-11-23T09:29:56.023Z,-0.05
2018-11-23T09:32:45.305Z,-0.08
2018-11-23T09:35:34.110Z,0.04
2018-11-23T09:38:23.484Z,-0.08
2018-11-23T09:41:12.537Z,-0.04
2018-11-23T09:44:01.508Z,-0.08
2018-11-23T09:46:50.301Z,-0.11
2018-11-23T09:49:39.863Z,0.13
2018-11-23T09:52:28.610Z,0.37
2018-11-23T09:55:18.076Z,0.50
2018-11-23T09:58:25.842Z,0.63
2018-11-23T10:01:14.631Z,0.64
2018-11-23T10:04:03.422Z,0.31
2018-11-23T10:06:52.203Z,0.39
2018-11-23T10:09:59.974Z,-0.94
2018-11-23T10:13:07.710Z,0.59
2018-11-23T10:15:56.517Z,0.80
2018-11-23T10:18:45.292Z,0.95
2018-11-23T10:21:53.056Z,1.15
2018-11-23T10:24:42.401Z,1.27
2018-11-23T10:27:31.301Z,1.59
2018-11-23T10:30:39.230Z,1.78
2018-11-23T10:33:46.945Z,1.86
2018-11-23T10:36:35.726Z,2.05
2018-11-23T10:39:24.511Z,0.98
2018-11-23T10:42:32.364Z,2.21
2018-11-23T10:45:23.397Z,2.23
2018-11-23T10:48:12.156Z,2.33
2018-11-23T10:51:20.170Z,2.55
2018-11-23T10:54:27.905Z,2.69
2018-11-23T10:57:16.703Z,2.78
2018-11-23T11:00:06.086Z,2.97
2018-11-23T11:03:14.544Z,3.30
2018-11-23T11:06:23.766Z,3.54
2018-11-23T11:09:12.675Z,3.49
2018-11-23T11:12:20.455Z,3.86
2018-11-23T11:15:28.814Z,3.91
2018-11-23T11:18:36.968Z,2.71
2018-11-23T11:21:26.356Z,4.52
2018-11-23T11:23:56.028Z,5.02
2018-11-23T11:26:45.007Z,5.26
2018-11-23T11:29:52.756Z,5.62
2018-11-23T11:33:00.484Z,6.04
2018-11-23T11:36:08.562Z,4.98
2018-11-23T11:39:18.185Z,5.73
2018-11-23T11:42:05.223Z,5.46
2018-11-23T11:44:53.977Z,5.50
2018-11-23T11:48:01.754Z,6.01
2018-11-23T11:51:09.491Z,6.38
2018-11-23T11:54:17.247Z,6.97
2018-11-23T11:57:06.159Z,7.35
2018-11-23T12:00:13.916Z,7.61
2018-11-23T12:03:21.989Z,6.51
2018-11-23T12:06:29.758Z,8.07
2018-11-23T12:09:37.480Z,8.23
2018-11-23T12:12:26.289Z,8.56
2018-11-23T12:15:34.030Z,8.82
2018-11-23T12:18:41.784Z,8.55
2018-11-23T12:21:30.563Z,7.51
2018-11-23T12:24:38.298Z,9.06
2018-11-23T12:27:29.488Z,8.37
2018-11-23T12:30:34.943Z,8.65
2018-11-23T12:33:42.701Z,8.89
2018-11-23T12:36:50.452Z,7.74
2018-11-23T12:39:58.201Z,9.30
2018-11-23T12:43:05.964Z,9.43
2018-11-23T12:45:54.732Z,9.71
2018-11-23T12:49:02.499Z,10.04
2018-11-23T12:52:10.231Z,9.75
2018-11-23T12:54:59.019Z,9.54
2018-11-23T12:58:06.767Z,10.15
2018-11-23T13:00:55.560Z,10.36
2018-11-23T13:03:44.713Z,10.09
2018-11-23T13:06:33.692Z,10.95
2018-11-23T13:09:22.606Z,11.17
2018-11-23T13:12:32.128Z,11.09
2018-11-23T13:15:40.038Z,11.22
2018-11-23T13:18:28.846Z,11.16
2018-11-23T13:21:17.665Z,11.43
2018-11-23T13:24:06.496Z,11.49
2018-11-23T13:27:14.252Z,11.32
2018-11-23T13:30:03.014Z,11.40
2018-11-23T13:32:51.858Z,10.57
2018-11-23T13:35:59.601Z,11.81
2018-11-23T13:39:07.379Z,11.74
2018-11-23T13:41:56.143Z,11.42
2018-11-23T13:44:44.929Z,10.98
2018-11-23T13:47:14.330Z,11.03
2018-11-23T13:50:03.325Z,11.04
2018-11-23T13:53:11.099Z,11.09
2018-11-23T13:56:18.848Z,11.26
2018-11-23T13:59:07.630Z,11.19
2018-11-23T14:01:56.404Z,11.15
2018-11-23T14:04:45.198Z,11.03
2018-11-23T14:07:52.944Z,10.75
2018-11-23T14:11:00.711Z,10.75
2018-11-23T14:13:49.515Z,10.37
2018-11-23T14:16:38.272Z,10.29
2018-11-23T14:19:27.441Z,9.95
2018-11-23T14:22:16.210Z,10.07
2018-11-23T14:25:24.244Z,9.64
2018-11-23T14:28:31.982Z,9.68
2018-11-23T14:31:20.780Z,9.11
2018-11-23T14:34:09.545Z,8.69
2018-11-23T14:36:58.463Z,8.84
2018-11-23T14:39:47.794Z,8.88
2018-11-23T14:42:37.119Z,7.94
2018-11-23T14:45:27.756Z,9.16
2018-11-23T14:48:16.556Z,8.74
2018-11-23T14:51:05.314Z,8.98
2018-11-23T14:53:54.238Z,8.65
2018-11-23T14:56:43.017Z,8.52
2018-11-23T14:59:50.783Z,7.82
2018-11-23T15:02:39.901Z,5.99
2018-11-23T15:05:28.684Z,6.71
2018-11-23T15:08:36.455Z,6.31
2018-11-23T15:11:44.216Z,6.19
2018-11-23T15:14:26.040Z,5.84
2018-11-23T15:17:14.922Z,5.60
2018-11-23T15:20:03.715Z,5.39
2018-11-23T15:22:54.206Z,5.02
2018-11-23T15:25:42.991Z,4.85
2018-11-23T15:28:50.731Z,4.66
2018-11-23T15:31:39.519Z,4.53
2018-11-23T15:34:47.285Z,4.07
2018-11-23T15:37:55.043Z,3.69
2018-11-23T15:40:43.819Z,3.51
2018-11-23T15:43:32.609Z,3.26
2018-11-23T15:46:21.368Z,3.16
2018-11-23T15:49:10.475Z,3.07
2018-11-23T15:52:18.235Z,2.96
2018-11-23T15:55:09.820Z,2.86
2018-11-23T15:58:00.596Z,2.76
2018-11-23T16:01:08.357Z,2.64
2018-11-23T16:04:16.097Z,2.60
2018-11-23T16:07:05.468Z,2.59
2018-11-23T16:09:54.255Z,2.55
2018-11-23T16:12:43.322Z,2.52
2018-11-23T16:15:51.072Z,2.40
2018-11-23T16:18:39.853Z,1.84
2018-11-23T16:21:28.681Z,2.21
2018-11-23T16:24:36.431Z,2.07
2018-11-23T16:27:25.268Z,1.94
2018-11-23T16:30:34.774Z,1.83
2018-11-23T16:33:42.851Z,1.75
2018-11-23T16:36:50.608Z,-0.54
2018-11-23T16:39:39.374Z,1.28
2018-11-23T16:42:28.196Z,1.14
2018-11-23T16:45:19.611Z,1.18
2018-11-23T16:48:09.389Z,1.04
2018-11-23T16:51:17.146Z,-1.03
2018-11-23T16:54:06.293Z,0.71
2018-11-23T16:56:55.076Z,0.80
2018-11-23T16:59:43.847Z,0.81
2018-11-23T17:02:32.637Z,0.87
2018-11-23T17:05:22.933Z,0.88
2018-11-23T17:08:11.888Z,0.84
2018-11-23T17:11:00.676Z,0.12
2018-11-23T17:13:49.476Z,0.72
2018-11-23T17:16:38.247Z,0.72
2018-11-23T17:19:46.015Z,0.67
2018-11-23T17:22:53.764Z,0.58
2018-11-23T17:25:42.607Z,0.52
2018-11-23T17:28:31.396Z,-1.34
2018-11-23T17:31:39.200Z,0.53
2018-11-23T17:34:27.977Z,0.52
2018-11-23T17:37:17.105Z,0.47
2018-11-23T17:40:26.106Z,0.43
2018-11-23T17:43:33.858Z,0.37
2018-11-23T17:46:22.647Z,0.36
2018-11-23T17:49:30.409Z,0.20
2018-11-23T17:52:19.187Z,0.22
2018-11-23T17:55:09.354Z,0.14
2018-11-23T17:57:58.522Z,0.22
2018-11-23T18:01:06.564Z,-0.34
2018-11-23T18:03:55.422Z,0.24
2018-11-23T18:07:03.484Z,0.29
2018-11-23T18:10:11.252Z,0.29
2018-11-23T18:13:00.661Z,0.32
2018-11-23T18:16:08.424Z,0.29
2018-11-23T18:19:16.214Z,0.37
2018-11-23T18:22:05.015Z,0.39
2018-11-23T18:24:53.782Z,0.29
2018-11-23T18:27:43.440Z,0.23
2018-11-23T18:30:33.290Z,0.04
2018-11-23T18:33:22.157Z,0.26
2018-11-23T18:36:29.928Z,0.09
2018-11-23T18:39:37.670Z,0.07
2018-11-23T18:42:45.458Z,0.16
2018-11-23T18:45:34.623Z,0.21
2018-11-23T18:48:42.375Z,0.19
2018-11-23T18:51:50.123Z,0.09
2018-11-23T18:54:38.913Z,-2.00
2018-11-23T18:57:27.686Z,0.07
2018-11-23T19:00:35.561Z,0.10
2018-11-23T19:03:24.363Z,-1.81
2018-11-23T19:06:13.157Z,0.17
2018-11-23T19:09:20.932Z,-0.43
2018-11-23T19:12:28.668Z,0.18
2018-11-23T19:15:37.121Z,0.20
2018-11-23T19:18:25.917Z,0.25
2018-11-23T19:21:14.723Z,0.24
2018-11-23T19:24:03.513Z,0.14
2018-11-23T19:26:52.516Z,0.10
2018-11-23T19:29:41.459Z,0.13
2018-11-23T19:32:49.230Z,0.16
2018-11-23T19:35:38.035Z,0.09
2018-11-23T19:38:26.924Z,0.12
2018-11-23T19:41:34.870Z,0.14
2018-11-23T19:44:23.924Z,0.13
2018-11-23T19:47:33.777Z,-0.07
2018-11-23T19:50:41.689Z,0.18
2018-11-23T19:53:49.566Z,0.16
2018-11-23T19:56:57.687Z,0.14
2018-11-23T19:59:47.174Z,0.14
2018-11-23T20:02:36.850Z,0.02
2018-11-23T20:05:26.534Z,0.08
2018-11-23T20:08:16.035Z,-0.32
2018-11-23T20:11:05.735Z,-0.08
2018-11-23T20:13:55.076Z,0.08
2018-11-23T20:16:44.305Z,0.07
2018-11-23T20:19:52.389Z,0.07
2018-11-23T20:22:41.995Z,0.12
2018-11-23T20:25:50.716Z,0.03
2018-11-23T20:28:59.132Z,0.14
2018-11-23T20:32:07.948Z,0.11
2018-11-23T20:35:16.459Z,0.05
2018-11-23T20:38:07.213Z,0.03
2018-11-23T20:41:16.472Z,0.06
2018-11-23T20:44:25.829Z,-0.08
2018-11-23T20:50:43.914Z,-0.08
2018-11-23T20:53:34.442Z,-0.12
2018-11-23T20:56:24.161Z,-0.05
2018-11-23T20:59:14.488Z,-0.05
2018-11-23T21:02:23.892Z,-0.49
2018-11-23T21:08:45.901Z,0.05
2018-11-23T21:11:37.602Z,0.02
2018-11-23T21:14:46.761Z,0.04
2018-11-23T21:17:37.753Z,0.05
2018-11-23T21:20:46.619Z,0.03
2018-11-23T21:23:36.579Z,0.00
2018-11-23T21:26:26.062Z,-0.17
2018-11-23T21:29:34.568Z,-0.28
2018-11-23T21:32:24.302Z,-0.27
2018-11-23T21:35:14.133Z,-0.46
2018-11-23T21:38:03.351Z,-0.60
2018-11-23T21:40:52.202Z,-0.60
2018-11-23T21:43:59.999Z,-0.52
2018-11-23T21:47:07.825Z,-0.53
2018-11-23T21:50:15.688Z,-0.57
2018-11-23T21:53:04.666Z,-0.41
2018-11-23T21:55:53.642Z,-0.30
2018-11-23T21:58:42.458Z,-0.27
2018-11-23T22:01:31.234Z,-0.33
2018-11-23T22:04:38.995Z,-1.35
2018-11-23T22:07:27.805Z,-0.32
2018-11-23T22:10:17.512Z,-0.28
2018-11-23T22:13:25.303Z,-0.25
2018-11-23T22:16:33.114Z,-0.28
2018-11-23T22:19:40.855Z,-0.42
2018-11-23T22:22:29.669Z,-0.36
2018-11-23T22:25:38.424Z,-1.12
2018-11-23T22:28:46.502Z,-0.23
2018-11-23T22:31:35.649Z,-0.14
2018-11-23T22:34:24.773Z,-0.25
2018-11-23T22:37:14.710Z,-0.20
2018-11-23T22:40:22.476Z,-1.86
2018-11-23T22:43:11.273Z,-0.23
2018-11-23T22:46:19.068Z,-2.19
2018-11-23T22:49:08.160Z,-0.25
2018-11-23T22:52:15.944Z,-0.20
2018-11-23T22:55:23.740Z,-0.25
2018-11-23T22:58:12.539Z,-0.26
2018-11-23T23:01:20.338Z,-0.16
2018-11-23T23:04:09.464Z,-0.13
2018-11-23T23:07:17.238Z,-2.32
2018-11-23T23:10:06.500Z,-0.24
2018-11-23T23:12:55.286Z,-0.57
2018-11-23T23:15:44.444Z,-0.43
2018-11-23T23:18:52.206Z,-0.48
2018-11-23T23:21:41.013Z,-0.38
2018-11-23T23:24:48.779Z,-0.31
2018-11-23T23:27:56.604Z,-0.28
2018-11-23T23:30:45.394Z,-0.28
2018-11-23T23:33:34.270Z,-0.50
2018-11-23T23:36:42.017Z,-0.59
2018-11-23T23:39:30.826Z,-0.62
2018-11-23T23:42:19.657Z,-2.39
2018-11-23T23:45:27.824Z,-0.70
2018-11-23T23:48:16.654Z,-0.71
2018-11-23T23:51:06.431Z,-0.80
2018-11-23T23:54:14.249Z,-0.81
2018-11-23T23:57:21.997Z,-0.72
